createdAt,value
2023-03-26T00:00:48.908Z,1002.05
2023-03-26T00:01:49.031Z,1002.06
2023-03-26T00:02:48.977Z,1002.07
2023-03-26T00:03:49.054Z,1002.07
2023-03-26T00:04:48.931Z,1002.07
2023-03-26T00:05:49.201Z,1002.09
2023-03-26T00:06:48.965Z,1002.10
2023-03-26T00:07:48.938Z,1002.11
2023-03-26T00:08:48.848Z,1002.11
2023-03-26T00:09:48.961Z,1002.11
2023-03-26T00:10:48.857Z,1002.15
2023-03-26T00:11:48.903Z,1002.17
2023-03-26T00:12:48.918Z,1002.17
2023-03-26T00:13:48.802Z,1002.17
2023-03-26T00:14:48.888Z,1002.16
2023-03-26T00:15:48.797Z,1002.16
2023-03-26T00:16:48.773Z,1002.16
2023-03-26T00:17:48.830Z,1002.16
2023-03-26T00:18:48.882Z,1002.17
2023-03-26T00:19:48.748Z,1002.18
2023-03-26T00:20:48.724Z,1002.18
2023-03-26T00:21:48.893Z,1002.18
2023-03-26T00:22:48.706Z,1002.21
2023-03-26T00:23:48.749Z,1002.21
2023-03-26T00:24:48.793Z,1002.23
2023-03-26T00:25:49.557Z,1002.23
2023-03-26T00:26:48.799Z,1002.22
2023-03-26T00:27:48.676Z,1002.23
2023-03-26T00:28:48.694Z,1002.22
2023-03-26T00:29:48.657Z,1002.24
2023-03-26T00:30:48.750Z,1002.20
2023-03-26T00:31:48.709Z,1002.23
2023-03-26T00:32:53.709Z,1002.23
2023-03-26T00:33:48.757Z,1002.23
2023-03-26T00:34:48.745Z,1002.22
2023-03-26T00:35:48.639Z,1002.21
2023-03-26T00:36:48.614Z,1002.18
2023-03-26T00:37:48.727Z,1002.16
2023-03-26T00:38:48.885Z,1002.15
2023-03-26T00:39:48.823Z,1002.13
2023-03-26T00:40:48.636Z,1002.11
2023-03-26T00:41:48.548Z,1002.07
2023-03-26T00:42:48.617Z,1002.07
2023-03-26T00:43:48.528Z,1002.04
2023-03-26T00:44:48.485Z,1002.04
2023-03-26T00:45:48.524Z,1002.02
2023-03-26T00:46:48.453Z,1002.03
2023-03-26T00:47:48.695Z,1002.00
2023-03-26T00:48:48.424Z,1001.97
2023-03-26T00:49:48.551Z,1001.95
2023-03-26T00:50:48.409Z,1001.95
2023-03-26T00:51:48.601Z,1001.92
2023-03-26T00:52:48.428Z,1001.92
2023-03-26T00:53:48.622Z,1001.92
2023-03-26T00:54:48.352Z,1001.91
2023-03-26T00:55:48.382Z,1001.90
2023-03-26T00:56:48.393Z,1001.90
2023-03-26T00:57:48.390Z,1001.91
2023-03-26T00:58:48.414Z,1001.90
2023-03-26T00:59:48.306Z,1001.88
2023-03-26T01:00:48.384Z,1001.85
2023-03-26T01:01:48.321Z,1001.84
2023-03-26T01:02:48.370Z,1001.88
2023-03-26T01:04:01.251Z,1001.88
2023-03-26T01:04:48.461Z,1001.84
2023-03-26T01:05:48.266Z,1001.84
2023-03-26T01:06:48.271Z,1001.83
2023-03-26T01:07:48.275Z,1001.82
2023-03-26T01:08:48.270Z,1001.80
2023-03-26T01:09:48.511Z,1001.81
2023-03-26T01:10:48.260Z,1001.81
2023-03-26T01:11:48.363Z,1001.82
2023-03-26T01:12:48.163Z,1001.84
2023-03-26T01:13:48.233Z,1001.84
2023-03-26T01:14:48.949Z,1001.82
2023-03-26T01:15:48.185Z,1001.81
2023-03-26T01:16:48.138Z,1001.79
2023-03-26T01:17:48.144Z,1001.78
2023-03-26T01:18:48.191Z,1001.76
2023-03-26T01:19:48.145Z,1001.76
2023-03-26T01:20:48.109Z,1001.75
2023-03-26T01:21:48.168Z,1001.75
2023-03-26T01:22:48.088Z,1001.73
2023-03-26T01:23:48.056Z,1001.72
2023-03-26T01:24:48.422Z,1001.73
2023-03-26T01:25:48.102Z,1001.73
2023-03-26T01:26:48.093Z,1001.71
2023-03-26T01:27:48.038Z,1001.72
2023-03-26T01:28:48.050Z,1001.73
2023-03-26T01:29:48.023Z,1001.73
2023-03-26T01:30:48.110Z,1001.72
2023-03-26T01:31:47.989Z,1001.71
2023-03-26T01:32:48.092Z,1001.71
2023-03-26T01:33:48.016Z,1001.70
2023-03-26T01:34:47.922Z,1001.68
2023-03-26T01:35:48.126Z,1001.69
2023-03-26T01:36:47.989Z,1001.67
2023-03-26T01:37:47.945Z,1001.66
2023-03-26T01:38:47.956Z,1001.65
2023-03-26T01:39:47.899Z,1001.63
2023-03-26T01:40:47.944Z,1001.62
2023-03-26T01:41:47.961Z,1001.61
2023-03-26T01:42:47.878Z,1001.59
2023-03-26T01:43:47.881Z,1001.58
2023-03-26T01:44:47.844Z,1001.56
2023-03-26T01:45:47.816Z,1001.54
2023-03-26T01:46:47.857Z,1001.53
2023-03-26T01:47:47.849Z,1001.52
2023-03-26T01:48:47.824Z,1001.50
2023-03-26T01:49:47.823Z,1001.48
2023-03-26T01:50:47.806Z,1001.45
2023-03-26T01:51:47.842Z,1001.45
2023-03-26T01:52:47.816Z,1001.43
2023-03-26T01:53:47.774Z,1001.43
2023-03-26T01:54:47.854Z,1001.41
2023-03-26T01:55:47.751Z,1001.41
2023-03-26T01:56:47.777Z,1001.41
2023-03-26T01:57:47.702Z,1001.42
2023-03-26T01:58:47.727Z,1001.39
2023-03-26T01:59:47.731Z,1001.37
2023-03-26T02:00:47.746Z,1001.35
2023-03-26T02:01:47.718Z,1001.34
2023-03-26T02:02:47.943Z,1001.33
2023-03-26T02:03:47.695Z,1001.31
2023-03-26T02:04:47.622Z,1001.31
2023-03-26T02:05:47.616Z,1001.30
2023-03-26T02:06:47.593Z,1001.30
2023-03-26T02:07:47.711Z,1001.29
2023-03-26T02:08:47.680Z,1001.27
2023-03-26T02:09:47.606Z,1001.25
2023-03-26T02:10:47.605Z,1001.22
2023-03-26T02:11:47.663Z,1001.18
2023-03-26T02:12:47.554Z,1001.16
2023-03-26T02:13:47.528Z,1001.14
2023-03-26T02:14:47.559Z,1001.13
2023-03-26T02:15:47.577Z,1001.11
2023-03-26T02:16:47.539Z,1001.09
2023-03-26T02:17:47.552Z,1001.09
2023-03-26T02:18:47.565Z,1001.08
2023-03-26T02:19:47.491Z,1001.06
2023-03-26T02:20:47.460Z,1001.06
2023-03-26T02:21:47.437Z,1001.05
2023-03-26T02:22:47.447Z,1001.02
2023-03-26T02:23:47.405Z,1000.98
2023-03-26T02:24:47.393Z,1000.97
2023-03-26T02:25:47.443Z,1000.95
2023-03-26T02:26:47.356Z,1000.95
2023-03-26T02:27:47.372Z,1000.93
2023-03-26T02:28:47.351Z,1000.93
2023-03-26T02:29:47.325Z,1000.92
2023-03-26T02:30:47.337Z,1000.92
2023-03-26T02:31:47.357Z,1000.93
2023-03-26T02:32:47.350Z,1000.92
2023-03-26T02:33:47.438Z,1000.92
2023-03-26T02:34:47.321Z,1000.93
2023-03-26T02:35:47.295Z,1000.93
2023-03-26T02:36:47.290Z,1000.93
2023-03-26T02:37:47.313Z,1000.92
2023-03-26T02:38:47.240Z,1000.90
2023-03-26T02:39:47.251Z,1000.88
2023-03-26T02:40:47.217Z,1000.87
2023-03-26T02:41:47.210Z,1000.86
2023-03-26T02:42:47.230Z,1000.84
2023-03-26T02:43:47.217Z,1000.82
2023-03-26T02:44:47.187Z,1000.81
2023-03-26T02:45:47.216Z,1000.79
2023-03-26T02:46:47.175Z,1000.77
2023-03-26T02:47:47.165Z,1000.75
2023-03-26T02:48:47.162Z,1000.74
2023-03-26T02:49:47.115Z,1000.73
2023-03-26T02:50:47.135Z,1000.71
2023-03-26T02:51:47.128Z,1000.70
2023-03-26T02:52:47.088Z,1000.69
2023-03-26T02:53:47.045Z,1000.67
2023-03-26T02:54:47.042Z,1000.67
2023-03-26T02:55:47.075Z,1000.66
2023-03-26T02:56:47.133Z,1000.65
2023-03-26T02:57:47.065Z,1000.66
2023-03-26T02:58:47.034Z,1000.66
2023-03-26T02:59:46.999Z,1000.67
2023-03-26T03:00:47.346Z,1000.67
2023-03-26T03:01:47.005Z,1000.67
2023-03-26T03:02:47.061Z,1000.66
2023-03-26T03:03:47.109Z,1000.65
2023-03-26T03:04:46.934Z,1000.63
2023-03-26T03:05:46.956Z,1000.63
2023-03-26T03:06:47.040Z,1000.62
2023-03-26T03:07:46.908Z,1000.61
2023-03-26T03:08:46.966Z,1000.61
2023-03-26T03:09:46.932Z,1000.62
2023-03-26T03:10:46.911Z,1000.61
2023-03-26T03:11:46.866Z,1000.62
2023-03-26T03:12:46.866Z,1000.60
2023-03-26T03:13:47.121Z,1000.59
2023-03-26T03:14:46.921Z,1000.58
2023-03-26T03:15:46.829Z,1000.58
2023-03-26T03:16:46.879Z,1000.57
2023-03-26T03:17:46.869Z,1000.57
2023-03-26T03:18:46.814Z,1000.56
2023-03-26T03:19:46.837Z,1000.55
2023-03-26T03:20:46.807Z,1000.56
2023-03-26T03:21:46.869Z,1000.54
2023-03-26T03:22:46.786Z,1000.52
2023-03-26T03:23:46.780Z,1000.50
2023-03-26T03:24:46.821Z,1000.48
2023-03-26T03:25:46.733Z,1000.49
2023-03-26T03:26:46.696Z,1000.47
2023-03-26T03:27:46.789Z,1000.46
2023-03-26T03:28:46.751Z,1000.45
2023-03-26T03:29:46.803Z,1000.45
2023-03-26T03:30:46.750Z,1000.43
2023-03-26T03:31:46.765Z,1000.43
2023-03-26T03:32:46.709Z,1000.42
2023-03-26T03:33:46.711Z,1000.39
2023-03-26T03:34:46.622Z,1000.37
2023-03-26T03:35:46.663Z,1000.39
2023-03-26T03:36:46.637Z,1000.37
2023-03-26T03:37:46.644Z,1000.37
2023-03-26T03:38:46.575Z,1000.34
2023-03-26T03:39:46.615Z,1000.33
2023-03-26T03:40:46.669Z,1000.31
2023-03-26T03:41:46.622Z,1000.30
2023-03-26T03:42:46.575Z,1000.28
2023-03-26T03:43:46.547Z,1000.27
2023-03-26T03:44:46.546Z,1000.26
2023-03-26T03:45:46.620Z,1000.23
2023-03-26T03:46:46.508Z,1000.22
2023-03-26T03:47:46.517Z,1000.20
2023-03-26T03:48:46.661Z,1000.19
2023-03-26T03:49:46.548Z,1000.19
2023-03-26T03:50:46.495Z,1000.18
2023-03-26T03:51:46.495Z,1000.15
2023-03-26T03:52:46.447Z,1000.14
2023-03-26T03:53:46.438Z,1000.13
2023-03-26T03:54:46.554Z,1000.12
2023-03-26T03:55:46.456Z,1000.11
2023-03-26T03:56:46.463Z,1000.11
2023-03-26T03:57:46.396Z,1000.10
2023-03-26T03:58:46.423Z,1000.12
2023-03-26T03:59:47.464Z,1000.12
2023-03-26T04:00:46.393Z,1000.14
2023-03-26T04:01:46.368Z,1000.15
2023-03-26T04:02:46.487Z,1000.16
2023-03-26T04:03:46.841Z,1000.15
2023-03-26T04:04:46.391Z,1000.14
2023-03-26T04:05:46.360Z,1000.12
2023-03-26T04:06:46.330Z,1000.12
2023-03-26T04:07:46.381Z,1000.11
2023-03-26T04:08:46.257Z,1000.11
2023-03-26T04:09:46.269Z,1000.12
2023-03-26T04:10:46.321Z,1000.12
2023-03-26T04:11:46.238Z,1000.11
2023-03-26T04:12:46.238Z,1000.13
2023-03-26T04:13:46.300Z,1000.13
2023-03-26T04:14:46.226Z,1000.13
2023-03-26T04:15:46.245Z,1000.13
2023-03-26T04:16:46.217Z,1000.12
2023-03-26T04:17:46.191Z,1000.13
2023-03-26T04:18:46.225Z,1000.14
2023-03-26T04:19:46.149Z,1000.12
2023-03-26T04:20:46.168Z,1000.10
2023-03-26T04:21:46.152Z,1000.07
2023-03-26T04:22:46.121Z,1000.06
2023-03-26T04:23:46.136Z,1000.05
2023-03-26T04:24:46.130Z,1000.02
2023-03-26T04:25:46.103Z,1000.01
2023-03-26T04:26:46.081Z,999.99
2023-03-26T04:27:46.097Z,999.99
2023-03-26T04:28:46.206Z,999.98
2023-03-26T04:29:46.058Z,999.98
2023-03-26T04:30:46.053Z,999.98
2023-03-26T04:31:46.126Z,999.97
2023-03-26T04:32:46.053Z,999.95
2023-03-26T04:33:46.064Z,999.93
2023-03-26T04:34:46.022Z,999.91
2023-03-26T04:35:46.164Z,999.88
2023-03-26T04:36:46.017Z,999.86
2023-03-26T04:37:46.133Z,999.84
2023-03-26T04:38:45.968Z,999.82
2023-03-26T04:39:45.973Z,999.81
2023-03-26T04:40:45.964Z,999.79
2023-03-26T04:41:45.951Z,999.77
2023-03-26T04:42:45.953Z,999.76
2023-03-26T04:43:45.906Z,999.75
2023-03-26T04:44:45.899Z,999.75
2023-03-26T04:45:45.962Z,999.74
2023-03-26T04:46:45.919Z,999.74
2023-03-26T04:47:45.889Z,999.75
2023-03-26T04:48:45.868Z,999.75
2023-03-26T04:49:45.883Z,999.74
2023-03-26T04:50:45.898Z,999.73
2023-03-26T04:51:45.830Z,999.72
2023-03-26T04:52:45.784Z,999.71
2023-03-26T04:53:45.807Z,999.70
2023-03-26T04:54:45.780Z,999.68
2023-03-26T04:55:45.793Z,999.66
2023-03-26T04:56:45.888Z,999.65
2023-03-26T04:57:45.756Z,999.63
2023-03-26T04:58:45.797Z,999.61
2023-03-26T04:59:45.840Z,999.59
2023-03-26T05:00:45.773Z,999.57
2023-03-26T05:01:45.968Z,999.57
2023-03-26T05:02:45.839Z,999.57
2023-03-26T05:03:45.997Z,999.57
2023-03-26T05:04:45.981Z,999.56
2023-03-26T05:05:45.754Z,999.55
2023-03-26T05:06:45.704Z,999.54
2023-03-26T05:07:45.738Z,999.53
2023-03-26T05:08:45.683Z,999.52
2023-03-26T05:09:45.649Z,999.52
2023-03-26T05:10:45.636Z,999.52
2023-03-26T05:11:45.646Z,999.51
2023-03-26T05:12:45.649Z,999.50
2023-03-26T05:13:45.670Z,999.49
2023-03-26T05:14:45.588Z,999.48
2023-03-26T05:15:45.557Z,999.48
2023-03-26T05:16:45.566Z,999.47
2023-03-26T05:17:45.537Z,999.46
2023-03-26T05:18:45.520Z,999.44
2023-03-26T05:19:45.503Z,999.43
2023-03-26T05:20:45.577Z,999.41
2023-03-26T05:21:45.456Z,999.38
2023-03-26T05:22:45.522Z,999.37
2023-03-26T05:23:45.459Z,999.35
2023-03-26T05:24:45.504Z,999.34
2023-03-26T05:25:45.481Z,999.34
2023-03-26T05:26:45.395Z,999.33
2023-03-26T05:27:45.438Z,999.32
2023-03-26T05:28:45.393Z,999.31
2023-03-26T05:29:45.409Z,999.29
2023-03-26T05:30:45.498Z,999.27
2023-03-26T05:31:45.414Z,999.26
2023-03-26T05:32:45.473Z,999.24
2023-03-26T05:33:45.472Z,999.23
2023-03-26T05:34:45.350Z,999.22
2023-03-26T05:35:45.369Z,999.21
2023-03-26T05:36:45.372Z,999.20
2023-03-26T05:37:45.341Z,999.18
2023-03-26T05:38:45.325Z,999.17
2023-03-26T05:39:45.370Z,999.15
2023-03-26T05:40:45.269Z,999.14
2023-03-26T05:41:45.297Z,999.13
2023-03-26T05:42:45.334Z,999.13
2023-03-26T05:43:45.268Z,999.12
2023-03-26T05:44:45.242Z,999.11
2023-03-26T05:45:45.365Z,999.09
2023-03-26T05:46:45.303Z,999.07
2023-03-26T05:47:45.272Z,999.06
2023-03-26T05:48:45.201Z,999.04
2023-03-26T05:49:45.216Z,999.04
2023-03-26T05:50:45.186Z,999.04
2023-03-26T05:51:45.226Z,999.04
2023-03-26T05:52:45.211Z,999.04
2023-03-26T05:53:45.141Z,999.03
2023-03-26T05:54:45.133Z,999.01
2023-03-26T05:55:45.122Z,998.98
2023-03-26T05:56:45.181Z,998.97
2023-03-26T05:57:45.149Z,998.96
2023-03-26T05:58:45.144Z,998.95
2023-03-26T05:59:45.138Z,998.93
2023-03-26T06:00:45.109Z,998.90
2023-03-26T06:01:45.161Z,998.87
2023-03-26T06:02:45.136Z,998.84
2023-03-26T06:03:45.250Z,998.80
2023-03-26T06:04:45.177Z,998.77
2023-03-26T06:05:45.144Z,998.74
2023-03-26T06:06:45.046Z,998.72
2023-03-26T06:07:45.171Z,998.71
2023-03-26T06:08:45.109Z,998.70
2023-03-26T06:09:45.056Z,998.69
2023-03-26T06:10:44.959Z,998.68
2023-03-26T06:11:44.982Z,998.66
2023-03-26T06:12:44.956Z,998.65
2023-03-26T06:13:44.968Z,998.63
2023-03-26T06:14:44.951Z,998.61
2023-03-26T06:15:44.981Z,998.59
2023-03-26T06:16:45.479Z,998.58
2023-03-26T06:17:45.004Z,998.57
2023-03-26T06:18:44.914Z,998.55
2023-03-26T06:19:44.934Z,998.54
2023-03-26T06:20:44.870Z,998.53
2023-03-26T06:21:44.864Z,998.51
2023-03-26T06:22:44.881Z,998.49
2023-03-26T06:23:44.811Z,998.48
2023-03-26T06:24:44.821Z,998.47
2023-03-26T06:25:44.835Z,998.46
2023-03-26T06:26:44.819Z,998.44
2023-03-26T06:27:44.781Z,998.43
2023-03-26T06:28:44.744Z,998.42
2023-03-26T06:29:44.856Z,998.40
2023-03-26T06:30:44.759Z,998.39
2023-03-26T06:31:44.809Z,998.39
2023-03-26T06:32:44.788Z,998.38
2023-03-26T06:33:44.722Z,998.37
2023-03-26T06:34:44.734Z,998.37
2023-03-26T06:35:44.879Z,998.37
2023-03-26T06:36:44.705Z,998.38
2023-03-26T06:37:44.718Z,998.38
2023-03-26T06:38:44.707Z,998.39
2023-03-26T06:39:44.773Z,998.39
2023-03-26T06:40:44.638Z,998.39
2023-03-26T06:41:44.663Z,998.40
2023-03-26T06:43:06.699Z,998.41
2023-03-26T06:43:44.626Z,998.41
2023-03-26T06:44:44.655Z,998.41
2023-03-26T06:45:44.626Z,998.41
2023-03-26T06:46:44.621Z,998.41
2023-03-26T06:47:44.636Z,998.41
2023-03-26T06:48:44.685Z,998.40
2023-03-26T06:49:45.435Z,998.40
2023-03-26T06:50:44.577Z,998.40
2023-03-26T06:51:44.544Z,998.40
2023-03-26T06:52:44.517Z,998.40
2023-03-26T06:53:44.542Z,998.40
2023-03-26T06:54:44.508Z,998.40
2023-03-26T06:55:44.582Z,998.41
2023-03-26T06:56:44.445Z,998.41
2023-03-26T06:57:44.502Z,998.41
2023-03-26T06:58:44.498Z,998.41
2023-03-26T06:59:44.445Z,998.40
2023-03-26T07:00:44.516Z,998.40
2023-03-26T07:01:46.441Z,998.40
2023-03-26T07:02:44.425Z,998.41
2023-03-26T07:03:44.479Z,998.40
2023-03-26T07:04:44.421Z,998.40
2023-03-26T07:05:44.425Z,998.40
2023-03-26T07:06:44.351Z,998.39
2023-03-26T07:07:46.809Z,998.40
2023-03-26T07:08:44.409Z,998.40
2023-03-26T07:09:44.375Z,998.40
2023-03-26T07:10:44.376Z,998.41
2023-03-26T07:11:44.347Z,998.41
2023-03-26T07:12:44.284Z,998.40
2023-03-26T07:13:44.277Z,998.40
2023-03-26T07:14:44.307Z,998.40
2023-03-26T07:15:44.364Z,998.39
2023-03-26T07:16:44.285Z,998.39
2023-03-26T07:17:44.278Z,998.38
2023-03-26T07:18:44.281Z,998.37
2023-03-26T07:19:44.240Z,998.36
2023-03-26T07:20:44.226Z,998.35
2023-03-26T07:21:44.244Z,998.35
2023-03-26T07:22:44.217Z,998.34
2023-03-26T07:23:44.233Z,998.33
2023-03-26T07:24:44.186Z,998.33
2023-03-26T07:25:44.220Z,998.32
2023-03-26T07:26:44.177Z,998.31
2023-03-26T07:27:44.222Z,998.30
2023-03-26T07:28:44.127Z,998.30
2023-03-26T07:29:44.171Z,998.30
2023-03-26T07:30:44.168Z,998.29
2023-03-26T07:31:44.194Z,998.28
2023-03-26T07:32:44.129Z,998.27
2023-03-26T07:33:44.138Z,998.26
2023-03-26T07:34:44.106Z,998.25
2023-03-26T07:35:44.158Z,998.23
2023-03-26T07:36:44.089Z,998.22
2023-03-26T07:37:44.139Z,998.21
2023-03-26T07:38:44.059Z,998.20
2023-03-26T07:39:44.043Z,998.20
2023-03-26T07:40:44.055Z,998.19
2023-03-26T07:41:44.060Z,998.18
2023-03-26T07:42:44.042Z,998.17
2023-03-26T07:43:44.014Z,998.15
2023-03-26T07:44:43.984Z,998.14
2023-03-26T07:45:44.075Z,998.13
2023-03-26T07:46:43.966Z,998.12
2023-03-26T07:47:43.946Z,998.11
2023-03-26T07:48:43.975Z,998.10
2023-03-26T07:49:43.955Z,998.09
2023-03-26T07:50:43.938Z,998.08
2023-03-26T07:51:43.902Z,998.07
2023-03-26T07:52:43.870Z,998.07
2023-03-26T07:53:43.871Z,998.06
2023-03-26T07:54:43.898Z,998.04
2023-03-26T07:55:43.870Z,998.03
2023-03-26T07:56:43.969Z,998.02
2023-03-26T07:57:43.849Z,998.00
2023-03-26T07:58:43.905Z,997.99
2023-03-26T07:59:43.861Z,997.97
2023-03-26T08:00:43.799Z,997.96
2023-03-26T08:01:43.790Z,997.95
2023-03-26T08:02:43.893Z,997.94
2023-03-26T08:03:43.867Z,997.92
2023-03-26T08:04:43.874Z,997.92
2023-03-26T08:05:43.721Z,997.91
2023-03-26T08:06:43.719Z,997.89
2023-03-26T08:07:43.718Z,997.89
2023-03-26T08:08:43.700Z,997.87
2023-03-26T08:09:43.681Z,997.86
2023-03-26T08:10:43.720Z,997.85
2023-03-26T08:11:43.657Z,997.84
2023-03-26T08:12:43.944Z,997.84
2023-03-26T08:13:43.654Z,997.83
2023-03-26T08:14:43.745Z,997.83
2023-03-26T08:15:43.718Z,997.81
2023-03-26T08:16:43.611Z,997.80
2023-03-26T08:17:43.697Z,997.80
2023-03-26T08:18:43.589Z,997.79
2023-03-26T08:19:43.561Z,997.79
2023-03-26T08:20:43.582Z,997.79
2023-03-26T08:21:43.543Z,997.79
2023-03-26T08:22:43.541Z,997.79
2023-03-26T08:23:50.392Z,997.80
2023-03-26T08:24:43.536Z,997.80
2023-03-26T08:25:43.532Z,997.79
2023-03-26T08:26:43.533Z,997.79
2023-03-26T08:27:43.483Z,997.79
2023-03-26T08:28:43.482Z,997.78
2023-03-26T08:29:43.474Z,997.77
2023-03-26T08:30:43.537Z,997.77
2023-03-26T08:31:43.475Z,997.76
2023-03-26T08:32:43.511Z,997.76
2023-03-26T08:33:43.438Z,997.75
2023-03-26T08:34:43.675Z,997.75
2023-03-26T08:35:43.470Z,997.74
2023-03-26T08:36:43.410Z,997.73
2023-03-26T08:37:43.384Z,997.73
2023-03-26T08:38:45.151Z,997.73
2023-03-26T08:39:43.375Z,997.72
2023-03-26T08:40:43.360Z,997.71
2023-03-26T08:41:43.378Z,997.71
2023-03-26T08:42:43.372Z,997.70
2023-03-26T08:43:43.463Z,997.69
2023-03-26T08:44:43.306Z,997.68
2023-03-26T08:45:43.304Z,997.68
2023-03-26T08:46:43.356Z,997.67
2023-03-26T08:47:43.309Z,997.67
2023-03-26T08:48:43.357Z,997.66
2023-03-26T08:49:43.242Z,997.65
2023-03-26T08:50:43.257Z,997.64
2023-03-26T08:51:43.260Z,997.64
2023-03-26T08:52:43.266Z,997.63
2023-03-26T08:53:43.258Z,997.62
2023-03-26T08:54:43.229Z,997.62
2023-03-26T08:55:43.229Z,997.61
2023-03-26T08:56:43.184Z,997.61
2023-03-26T08:57:43.240Z,997.61
2023-03-26T08:58:43.221Z,997.61
2023-03-26T08:59:43.166Z,997.61
2023-03-26T09:00:43.265Z,997.61
2023-03-26T09:01:43.166Z,997.61
2023-03-26T09:02:43.180Z,997.60
2023-03-26T09:03:43.138Z,997.59
2023-03-26T09:04:43.120Z,997.59
2023-03-26T09:05:43.166Z,997.58
2023-03-26T09:06:43.125Z,997.57
2023-03-26T09:07:43.102Z,997.57
2023-03-26T09:08:54.139Z,997.56
2023-03-26T09:09:43.079Z,997.56
2023-03-26T09:10:43.071Z,997.55
2023-03-26T09:11:43.043Z,997.55
2023-03-26T09:12:43.071Z,997.54
2023-03-26T09:13:43.006Z,997.54
2023-03-26T09:14:42.987Z,997.54
2023-03-26T09:15:43.088Z,997.54
2023-03-26T09:16:43.095Z,997.53
2023-03-26T09:17:42.998Z,997.53
2023-03-26T09:18:43.002Z,997.52
2023-03-26T09:19:42.944Z,997.52
2023-03-26T09:20:42.952Z,997.52
2023-03-26T09:21:42.923Z,997.51
2023-03-26T09:22:42.928Z,997.51
2023-03-26T09:23:42.900Z,997.52
2023-03-26T09:24:42.937Z,997.51
2023-03-26T09:25:42.907Z,997.52
2023-03-26T09:26:42.909Z,997.51
2023-03-26T09:27:42.923Z,997.51
2023-03-26T09:28:42.848Z,997.50
2023-03-26T09:29:42.869Z,997.50
2023-03-26T09:30:42.846Z,997.50
2023-03-26T09:31:42.883Z,997.50
2023-03-26T09:32:42.868Z,997.50
2023-03-26T09:33:42.828Z,997.50
2023-03-26T09:34:42.794Z,997.50
2023-03-26T09:35:42.850Z,997.50
2023-03-26T09:36:42.763Z,997.50
2023-03-26T09:37:56.705Z,997.49
2023-03-26T09:38:42.743Z,997.49
2023-03-26T09:39:42.759Z,997.48
2023-03-26T09:40:42.723Z,997.48
2023-03-26T09:41:42.699Z,997.47
2023-03-26T09:42:42.727Z,997.46
2023-03-26T09:43:42.716Z,997.46
2023-03-26T09:44:42.757Z,997.46
2023-03-26T09:45:42.712Z,997.46
2023-03-26T09:46:42.903Z,997.46
2023-03-26T09:47:42.715Z,997.46
2023-03-26T09:48:42.671Z,997.47
2023-03-26T09:49:42.664Z,997.47
2023-03-26T09:50:42.629Z,997.47
2023-03-26T09:51:42.604Z,997.47
2023-03-26T09:52:42.679Z,997.46
2023-03-26T09:53:42.601Z,997.46
2023-03-26T09:54:42.589Z,997.46
2023-03-26T09:55:42.562Z,997.47
2023-03-26T09:56:42.578Z,997.47
2023-03-26T09:57:42.603Z,997.47
2023-03-26T09:58:42.562Z,997.46
2023-03-26T09:59:42.555Z,997.47
2023-03-26T10:00:42.614Z,997.47
2023-03-26T10:01:42.651Z,997.48
2023-03-26T10:02:45.606Z,997.48
2023-03-26T10:03:42.494Z,997.49
2023-03-26T10:04:42.550Z,997.49
2023-03-26T10:05:42.496Z,997.49
2023-03-26T10:06:42.512Z,997.49
2023-03-26T10:07:42.469Z,997.49
2023-03-26T10:08:42.469Z,997.49
2023-03-26T10:09:42.403Z,997.48
2023-03-26T10:10:42.414Z,997.48
2023-03-26T10:11:42.440Z,997.48
2023-03-26T10:12:42.413Z,997.49
2023-03-26T10:13:42.395Z,997.48
2023-03-26T10:14:42.454Z,997.48
2023-03-26T10:15:42.409Z,997.48
2023-03-26T10:16:42.457Z,997.48
2023-03-26T10:17:42.434Z,997.46
2023-03-26T10:18:42.315Z,997.46
2023-03-26T10:19:42.339Z,997.46
2023-03-26T10:20:42.370Z,997.45
2023-03-26T10:21:42.289Z,997.44
2023-03-26T10:22:42.348Z,997.43
2023-03-26T10:23:42.331Z,997.44
2023-03-26T10:24:42.310Z,997.42
2023-03-26T10:25:42.276Z,997.42
2023-03-26T10:26:42.247Z,997.40
2023-03-26T10:27:42.234Z,997.40
2023-03-26T10:28:42.307Z,997.40
2023-03-26T10:29:42.241Z,997.40
2023-03-26T10:30:42.226Z,997.40
2023-03-26T10:31:42.198Z,997.39
2023-03-26T10:32:42.173Z,997.38
2023-03-26T10:33:42.284Z,997.37
2023-03-26T10:34:42.165Z,997.38
2023-03-26T10:35:42.192Z,997.38
2023-03-26T10:36:42.119Z,997.37
2023-03-26T10:37:42.118Z,997.37
2023-03-26T10:38:42.204Z,997.36
2023-03-26T10:39:43.455Z,997.35
2023-03-26T10:40:42.090Z,997.35
2023-03-26T10:41:42.084Z,997.35
2023-03-26T10:42:42.101Z,997.36
2023-03-26T10:43:42.089Z,997.35
2023-03-26T10:44:42.092Z,997.35
2023-03-26T10:45:42.044Z,997.35
2023-03-26T10:46:42.103Z,997.35
2023-03-26T10:47:42.066Z,997.34
2023-03-26T10:48:42.015Z,997.35
2023-03-26T10:49:42.017Z,997.35
2023-03-26T10:50:42.001Z,997.35
2023-03-26T10:51:41.958Z,997.36
2023-03-26T10:52:41.983Z,997.36
2023-03-26T10:53:41.978Z,997.36
2023-03-26T10:54:41.961Z,997.37
2023-03-26T10:55:41.962Z,997.35
2023-03-26T10:56:42.633Z,997.34
2023-03-26T10:57:41.920Z,997.34
2023-03-26T10:58:48.338Z,997.34
2023-03-26T10:59:41.889Z,997.34
2023-03-26T11:00:41.925Z,997.34
2023-03-26T11:01:41.990Z,997.32
2023-03-26T11:02:41.904Z,997.31
2023-03-26T11:03:41.879Z,997.31
2023-03-26T11:04:41.872Z,997.30
2023-03-26T11:05:41.885Z,997.29
2023-03-26T11:06:41.828Z,997.29
2023-03-26T11:07:41.817Z,997.29
2023-03-26T11:08:41.887Z,997.28
2023-03-26T11:09:41.796Z,997.28
2023-03-26T11:10:41.845Z,997.27
2023-03-26T11:11:41.777Z,997.28
2023-03-26T11:12:41.856Z,997.27
2023-03-26T11:13:41.748Z,997.26
2023-03-26T11:14:41.810Z,997.25
2023-03-26T11:15:41.787Z,997.25
2023-03-26T11:16:41.733Z,997.23
2023-03-26T11:17:41.845Z,997.23
2023-03-26T11:18:41.758Z,997.22
2023-03-26T11:19:41.708Z,997.22
2023-03-26T11:20:41.723Z,997.22
2023-03-26T11:21:41.673Z,997.22
2023-03-26T11:22:41.729Z,997.21
2023-03-26T11:23:41.647Z,997.19
2023-03-26T11:24:41.660Z,997.18
2023-03-26T11:25:41.625Z,997.18
2023-03-26T11:26:41.616Z,997.19
2023-03-26T11:27:41.665Z,997.20
2023-03-26T11:28:41.621Z,997.22
2023-03-26T11:29:41.620Z,997.22
2023-03-26T11:30:41.602Z,997.22
2023-03-26T11:31:41.631Z,997.22
2023-03-26T11:32:41.609Z,997.21
2023-03-26T11:33:45.486Z,997.20
2023-03-26T11:34:41.603Z,997.20
2023-03-26T11:35:41.881Z,997.20
2023-03-26T11:36:41.523Z,997.21
2023-03-26T11:37:41.531Z,997.21
2023-03-26T11:38:41.554Z,997.22
2023-03-26T11:39:41.598Z,997.22
2023-03-26T11:40:41.572Z,997.20
2023-03-26T11:41:41.443Z,997.19
2023-03-26T11:42:41.495Z,997.18
2023-03-26T11:43:41.474Z,997.18
2023-03-26T11:44:41.453Z,997.18
2023-03-26T11:45:41.482Z,997.16
2023-03-26T11:46:41.465Z,997.15
2023-03-26T11:47:41.454Z,997.15
2023-03-26T11:48:41.384Z,997.15
2023-03-26T11:49:41.364Z,997.15
2023-03-26T11:50:41.413Z,997.16
2023-03-26T11:51:41.390Z,997.17
2023-03-26T11:52:41.369Z,997.16
2023-03-26T11:53:41.348Z,997.16
2023-03-26T11:54:41.332Z,997.15
2023-03-26T11:55:41.336Z,997.15
2023-03-26T11:56:41.394Z,997.16
2023-03-26T11:57:41.332Z,997.15
2023-03-26T11:58:41.288Z,997.15
2023-03-26T11:59:53.139Z,997.14
2023-03-26T12:00:41.297Z,997.14
2023-03-26T12:01:41.351Z,997.14
2023-03-26T12:02:41.511Z,997.14
2023-03-26T12:03:41.266Z,997.15
2023-03-26T12:04:41.324Z,997.14
2023-03-26T12:05:41.204Z,997.14
2023-03-26T12:06:41.222Z,997.15
2023-03-26T12:07:41.241Z,997.14
2023-03-26T12:08:41.161Z,997.15
2023-03-26T12:09:41.173Z,997.15
2023-03-26T12:10:41.138Z,997.14
2023-03-26T12:11:41.193Z,997.14
2023-03-26T12:12:41.894Z,997.14
2023-03-26T12:13:41.193Z,997.14
2023-03-26T12:14:41.110Z,997.14
2023-03-26T12:15:41.164Z,997.14
2023-03-26T12:16:41.152Z,997.13
2023-03-26T12:17:41.125Z,997.14
2023-03-26T12:18:41.097Z,997.14
2023-03-26T12:19:41.098Z,997.14
2023-03-26T12:20:41.074Z,997.15